Погода Возрицына 2 недели

Республика Карелия, Россия

21 июля-03 августа
  • 21июля
    Сегодня
    +12°
    +23°
    Ясно и безоблачно
    ВремяПогодаТемператураВлажностьДавлениеВетер, м/сВероятность осадков
    00:00Практически безоблачно+17°C88 %755 мм0.8 м/с10 %
    03:00Практически безоблачно+15°C86 %756 мм1.1 м/с6 %
    06:00Ясно и безоблачно+15°C83 %756 мм1.1 м/с2 %
    09:00Ясно и безоблачно+19°C72 %757 мм1.4 м/с2 %
    12:00Ясно и безоблачно+22°C54 %757 мм1.5 м/с2 %
    15:00Ясно и безоблачно+23°C46 %756 мм1.3 м/с2 %
    18:00Ясно и безоблачно+23°C53 %756 мм1.0 м/с2 %
    21:00Ясно и безоблачно+19°C72 %757 мм0.7 м/с2 %
  • 22июля
    Понедельник
    +14°
    +24°
    Облачно с прояснениями
    ВремяПогодаТемператураВлажностьДавлениеВетер, м/сВероятность осадков
    00:00Ясно и безоблачно+15°C74 %758 мм0.5 м/с2 %
    03:00Ясно и безоблачно+13°C79 %758 мм0.9 м/с2 %
    06:00Ясно и безоблачно+14°C79 %759 мм0.9 м/с2 %
    09:00Ясно и безоблачно+19°C68 %759 мм0.9 м/с2 %
    12:00Ясно и безоблачно+21°C48 %759 мм1.1 м/с2 %
    15:00Облачно с прояснениями+23°C47 %759 мм1.0 м/с2 %
    18:00Ясно и безоблачно+23°C56 %759 мм0.6 м/с2 %
    21:00Ясно и безоблачно+19°C78 %759 мм0.2 м/с2 %
  • 23июля
    Вторник
    +14°
    +24°
    Ясно и безоблачно
    ВремяПогодаТемператураВлажностьДавлениеВетер, м/сВероятность осадков
    00:00Ясно и безоблачно+16°C75 %759 мм0.2 м/с2 %
    03:00Ясно и безоблачно+15°C83 %760 мм0.7 м/с2 %
    06:00Ясно и безоблачно+16°C82 %760 мм0.6 м/с2 %
    09:00Ясно и безоблачно+21°C65 %760 мм0.7 м/с2 %
    12:00Ясно и безоблачно+23°C49 %760 мм1.0 м/с2 %
    15:00Ясно и безоблачно+24°C47 %759 мм0.9 м/с2 %
    18:00Ясно и безоблачно+24°C51 %759 мм0.6 м/с2 %
    21:00Ясно и безоблачно+20°C69 %759 мм0.0 м/с2 %
  • 24июля
    Среда
    +16°
    +26°
    Облачно с прояснениями
    ВремяПогодаТемператураВлажностьДавлениеВетер, м/сВероятность осадков
    00:00Ясно и безоблачно+17°C77 %758 мм0.0 м/с2 %
    03:00Практически безоблачно+15°C92 %758 мм0.6 м/с2 %
    06:00Небольшая облачность+17°C92 %758 мм0.5 м/с2 %
    09:00Практически безоблачно+22°C76 %758 мм0.5 м/с2 %
    12:00Практически безоблачно+25°C55 %758 мм0.8 м/с2 %
    15:00Облачно с прояснениями+26°C49 %757 мм0.9 м/с2 %
    18:00Практически безоблачно+26°C54 %756 мм0.5 м/с3 %
    21:00Ясно и безоблачно+21°C69 %756 мм0.1 м/с2 %
  • 25июля
    Четверг
    +16°
    +25°
    Практически безоблачно
    ВремяПогодаТемператураВлажностьДавлениеВетер, м/сВероятность осадков
    00:00Ясно и безоблачно+19°C75 %757 мм0.1 м/с2 %
    03:00Ясно и безоблачно+17°C83 %757 мм0.6 м/с2 %
    06:00Ясно и безоблачно+18°C88 %756 мм0.5 м/с2 %
    09:00Ясно и безоблачно+22°C72 %756 мм0.7 м/с2 %
    12:00Ясно и безоблачно+24°C58 %756 мм0.9 м/с2 %
    15:00Практически безоблачно+25°C54 %756 мм0.8 м/с7 %
    18:00Небольшая облачность+25°C55 %755 мм0.6 м/с9 %
    21:00Практически безоблачно+21°C73 %755 мм0.2 м/с2 %
Мы используем cookies
Соглашаюсь